sensor_id;sensor_type;location;lat;lon;timestamp;pressure;altitude;pressure_sealevel;temperature;humidity
69855;BME280;57146;48.140;16.304;2023-05-11T00:01:05;99257.63;;;14.74;55.00
69855;BME280;57146;48.140;16.304;2023-05-11T00:03:33;99260.59;;;14.73;54.93
69855;BME280;57146;48.140;16.304;2023-05-11T00:06:00;99256.38;;;14.72;54.62
69855;BME280;57146;48.140;16.304;2023-05-11T00:08:27;99257.50;;;14.71;54.88
69855;BME280;57146;48.140;16.304;2023-05-11T00:10:54;99254.38;;;14.69;55.02
69855;BME280;57146;48.140;16.304;2023-05-11T00:13:21;99247.56;;;14.68;55.30
69855;BME280;57146;48.140;16.304;2023-05-11T00:15:48;99253.97;;;14.67;54.86
69855;BME280;57146;48.140;16.304;2023-05-11T00:18:15;99250.19;;;14.68;54.83
69855;BME280;57146;48.140;16.304;2023-05-11T00:20:41;99250.19;;;14.68;54.77
69855;BME280;57146;48.140;16.304;2023-05-11T00:23:08;99244.47;;;14.66;55.02
69855;BME280;57146;48.140;16.304;2023-05-11T00:25:35;99245.13;;;14.63;54.72
69855;BME280;57146;48.140;16.304;2023-05-11T00:28:02;99249.63;;;14.62;54.90
69855;BME280;57146;48.140;16.304;2023-05-11T00:30:29;99248.41;;;14.59;55.02
69855;BME280;57146;48.140;16.304;2023-05-11T00:32:57;99247.53;;;14.55;54.76
69855;BME280;57146;48.140;16.304;2023-05-11T00:35:23;99242.88;;;14.52;55.14
69855;BME280;57146;48.140;16.304;2023-05-11T00:37:51;99241.94;;;14.48;55.22
69855;BME280;57146;48.140;16.304;2023-05-11T00:40:18;99245.25;;;14.45;55.35
69855;BME280;57146;48.140;16.304;2023-05-11T00:42:46;99242.59;;;14.45;55.25
69855;BME280;57146;48.140;16.304;2023-05-11T00:45:12;99252.41;;;14.45;55.68
69855;BME280;57146;48.140;16.304;2023-05-11T00:47:40;99248.66;;;14.46;55.23
69855;BME280;57146;48.140;16.304;2023-05-11T00:50:08;99248.22;;;14.44;55.53
69855;BME280;57146;48.140;16.304;2023-05-11T00:52:35;99249.44;;;14.46;55.27
69855;BME280;57146;48.140;16.304;2023-05-11T00:55:01;99243.69;;;14.44;55.67
69855;BME280;57146;48.140;16.304;2023-05-11T00:57:29;99250.09;;;14.43;55.71
69855;BME280;57146;48.140;16.304;2023-05-11T00:59:56;99251.63;;;14.44;55.65
69855;BME280;57146;48.140;16.304;2023-05-11T01:02:23;99249.31;;;14.43;55.75
69855;BME280;57146;48.140;16.304;2023-05-11T01:04:50;99257.59;;;14.41;55.74
69855;BME280;57146;48.140;16.304;2023-05-11T01:10:26;99249.84;;;14.36;55.89
69855;BME280;57146;48.140;16.304;2023-05-11T01:13:18;99253.59;;;14.35;55.91
69855;BME280;57146;48.140;16.304;2023-05-11T01:15:51;99242.22;;;14.34;55.33
69855;BME280;57146;48.140;16.304;2023-05-11T01:18:27;99244.88;;;14.34;55.75
69855;BME280;57146;48.140;16.304;2023-05-11T01:21:02;99246.28;;;14.32;55.90
69855;BME280;57146;48.140;16.304;2023-05-11T01:29:28;99241.50;;;14.25;56.39
69855;BME280;57146;48.140;16.304;2023-05-11T01:32:05;99234.34;;;14.26;56.46
69855;BME280;57146;48.140;16.304;2023-05-11T01:34:38;99247.56;;;14.26;56.28
69855;BME280;57146;48.140;16.304;2023-05-11T01:37:13;99246.16;;;14.28;56.42
69855;BME280;57146;48.140;16.304;2023-05-11T01:39:51;99244.28;;;14.29;56.32
69855;BME280;57146;48.140;16.304;2023-05-11T01:42:23;99248.81;;;14.28;56.46
69855;BME280;57146;48.140;16.304;2023-05-11T01:44:54;99248.69;;;14.25;56.35
69855;BME280;57146;48.140;16.304;2023-05-11T01:47:24;99243.38;;;14.25;56.52
69855;BME280;57146;48.140;16.304;2023-05-11T01:49:53;99244.03;;;14.22;56.59
69855;BME280;57146;48.140;16.304;2023-05-11T01:52:22;99250.44;;;14.21;56.51
69855;BME280;57146;48.140;16.304;2023-05-11T01:54:52;99247.31;;;14.19;56.69
69855;BME280;57146;48.140;16.304;2023-05-11T01:57:20;99251.53;;;14.20;56.28
69855;BME280;57146;48.140;16.304;2023-05-11T01:59:48;99249.53;;;14.17;56.41
69855;BME280;57146;48.140;16.304;2023-05-11T02:02:17;99250.94;;;14.14;56.84
69855;BME280;57146;48.140;16.304;2023-05-11T02:04:46;99251.94;;;14.09;56.91
69855;BME280;57146;48.140;16.304;2023-05-11T02:07:15;99246.94;;;14.08;56.81
69855;BME280;57146;48.140;16.304;2023-05-11T02:09:42;99251.16;;;14.09;56.61
69855;BME280;57146;48.140;16.304;2023-05-11T02:12:12;99248.81;;;14.07;56.66
69855;BME280;57146;48.140;16.304;2023-05-11T02:14:41;99254.44;;;14.06;56.93
69855;BME280;57146;48.140;16.304;2023-05-11T02:17:09;99261.16;;;14.03;57.08
69855;BME280;57146;48.140;16.304;2023-05-11T02:19:37;99264.91;;;14.02;57.11
69855;BME280;57146;48.140;16.304;2023-05-11T02:22:08;99261.47;;;14.02;57.23
69855;BME280;57146;48.140;16.304;2023-05-11T02:24:35;99258.50;;;14.03;57.45
69855;BME280;57146;48.140;16.304;2023-05-11T02:27:03;99258.84;;;14.02;57.53
69855;BME280;57146;48.140;16.304;2023-05-11T02:29:31;99256.50;;;14.00;57.91
69855;BME280;57146;48.140;16.304;2023-05-11T02:32:11;99254.94;;;13.99;57.77
69855;BME280;57146;48.140;16.304;2023-05-11T02:34:44;99255.25;;;13.98;58.00
69855;BME280;57146;48.140;16.304;2023-05-11T02:37:19;99254.06;;;13.95;58.00
69855;BME280;57146;48.140;16.304;2023-05-11T02:39:53;99256.56;;;13.92;58.03
69855;BME280;57146;48.140;16.304;2023-05-11T02:42:23;99259.53;;;13.90;58.51
69855;BME280;57146;48.140;16.304;2023-05-11T02:45:00;99253.78;;;13.88;58.50
69855;BME280;57146;48.140;16.304;2023-05-11T02:47:31;99254.88;;;13.87;58.36
69855;BME280;57146;48.140;16.304;2023-05-11T02:50:01;99257.06;;;13.85;58.32
69855;BME280;57146;48.140;16.304;2023-05-11T02:52:32;99260.81;;;13.84;58.40
69855;BME280;57146;48.140;16.304;2023-05-11T02:55:01;99262.09;;;13.78;58.50
69855;BME280;57146;48.140;16.304;2023-05-11T02:57:30;99257.56;;;13.78;58.85
69855;BME280;57146;48.140;16.304;2023-05-11T03:00:02;99262.25;;;13.73;58.97
69855;BME280;57146;48.140;16.304;2023-05-11T03:02:29;99264.91;;;13.73;59.04
69855;BME280;57146;48.140;16.304;2023-05-11T03:04:56;99266.97;;;13.67;59.05
69855;BME280;57146;48.140;16.304;2023-05-11T03:07:23;99260.16;;;13.66;59.19
69855;BME280;57146;48.140;16.304;2023-05-11T03:09:50;99260.78;;;13.63;59.61
69855;BME280;57146;48.140;16.304;2023-05-11T03:12:17;99264.50;;;13.62;59.80
69855;BME280;57146;48.140;16.304;2023-05-11T03:14:45;99262.97;;;13.61;59.80
69855;BME280;57146;48.140;16.304;2023-05-11T03:17:14;99271.03;;;13.64;59.78
69855;BME280;57146;48.140;16.304;2023-05-11T03:19:43;99252.72;;;13.59;60.08
69855;BME280;57146;48.140;16.304;2023-05-11T03:22:10;99252.72;;;13.59;59.78
69855;BME280;57146;48.140;16.304;2023-05-11T03:24:38;99262.34;;;13.55;60.05
69855;BME280;57146;48.140;16.304;2023-05-11T03:27:06;99248.56;;;13.50;60.13
69855;BME280;57146;48.140;16.304;2023-05-11T03:29:35;99257.13;;;13.47;60.41
69855;BME280;57146;48.140;16.304;2023-05-11T03:32:03;99252.59;;;13.47;60.18
69855;BME280;57146;48.140;16.304;2023-05-11T03:34:35;99253.72;;;13.46;60.71
69855;BME280;57146;48.140;16.304;2023-05-11T03:37:04;99245.31;;;13.44;60.51
69855;BME280;57146;48.140;16.304;2023-05-11T03:39:34;99245.31;;;13.44;60.87
69855;BME280;57146;48.140;16.304;2023-05-11T03:42:02;99247.50;;;13.42;60.91
69855;BME280;57146;48.140;16.304;2023-05-11T03:44:33;99247.19;;;13.44;60.60
69855;BME280;57146;48.140;16.304;2023-05-11T03:47:02;99244.88;;;13.42;61.11
69855;BME280;57146;48.140;16.304;2023-05-11T03:49:34;99245.16;;;13.40;61.25
69855;BME280;57146;48.140;16.304;2023-05-11T03:52:02;99252.31;;;13.40;61.08
69855;BME280;57146;48.140;16.304;2023-05-11T03:54:30;99250.78;;;13.39;61.54
69855;BME280;57146;48.140;16.304;2023-05-11T03:56:57;99250.66;;;13.35;61.33
69855;BME280;57146;48.140;16.304;2023-05-11T03:59:24;99252.03;;;13.33;61.08
69855;BME280;57146;48.140;16.304;2023-05-11T04:01:52;99249.41;;;13.33;61.56
69855;BME280;57146;48.140;16.304;2023-05-11T04:04:19;99245.22;;;13.32;61.22
69855;BME280;57146;48.140;16.304;2023-05-11T04:06:46;99254.69;;;13.33;61.60
69855;BME280;57146;48.140;16.304;2023-05-11T04:09:19;99253.78;;;13.29;61.20
69855;BME280;57146;48.140;16.304;2023-05-11T04:11:46;99257.06;;;13.26;61.38
69855;BME280;57146;48.140;16.304;2023-05-11T04:14:13;99259.53;;;13.22;61.55
69855;BME280;57146;48.140;16.304;2023-05-11T04:16:41;99258.28;;;13.19;61.59
69855;BME280;57146;48.140;16.304;2023-05-11T04:19:09;99262.16;;;13.22;62.19
69855;BME280;57146;48.140;16.304;2023-05-11T04:21:36;99260.94;;;13.19;61.93
69855;BME280;57146;48.140;16.304;2023-05-11T04:24:03;99262.34;;;13.17;62.11
69855;BME280;57146;48.140;16.304;2023-05-11T04:26:29;99260.00;;;13.15;61.86
69855;BME280;57146;48.140;16.304;2023-05-11T04:28:56;99266.41;;;13.14;61.83
69855;BME280;57146;48.140;16.304;2023-05-11T04:31:23;99265.63;;;13.14;61.89
69855;BME280;57146;48.140;16.304;2023-05-11T04:33:50;99270.13;;;13.13;62.41
69855;BME280;57146;48.140;16.304;2023-05-11T04:36:17;99275.28;;;13.10;62.03
69855;BME280;57146;48.140;16.304;2023-05-11T04:38:44;99279.13;;;13.12;62.51
69855;BME280;57146;48.140;16.304;2023-05-11T04:41:11;99277.59;;;13.11;62.39
69855;BME280;57146;48.140;16.304;2023-05-11T04:43:39;99287.72;;;13.09;62.78
69855;BME280;57146;48.140;16.304;2023-05-11T04:46:08;99277.16;;;13.09;62.85
69855;BME280;57146;48.140;16.304;2023-05-11T04:48:35;99282.09;;;13.11;62.38
69855;BME280;57146;48.140;16.304;2023-05-11T04:51:03;99278.22;;;13.08;62.72
69855;BME280;57146;48.140;16.304;2023-05-11T04:53:33;99279.31;;;13.07;62.51
69855;BME280;57146;48.140;16.304;2023-05-11T04:56:01;99280.09;;;13.08;62.81
69855;BME280;57146;48.140;16.304;2023-05-11T04:58:27;99281.97;;;13.07;62.50
69855;BME280;57146;48.140;16.304;2023-05-11T05:00:55;99289.56;;;13.09;62.76
69855;BME280;57146;48.140;16.304;2023-05-11T05:03:22;99286.16;;;13.08;62.73
69855;BME280;57146;48.140;16.304;2023-05-11T05:05:49;99289.25;;;13.10;62.59
69855;BME280;57146;48.140;16.304;2023-05-11T05:08:16;99287.41;;;13.11;63.01
69855;BME280;57146;48.140;16.304;2023-05-11T05:10:43;99289.09;;;13.15;62.86
69855;BME280;57146;48.140;16.304;2023-05-11T05:13:10;99290.19;;;13.14;62.51
69855;BME280;57146;48.140;16.304;2023-05-11T05:15:37;99293.94;;;13.13;62.46
69855;BME280;57146;48.140;16.304;2023-05-11T05:18:04;99300.56;;;13.19;62.43
69855;BME280;57146;48.140;16.304;2023-05-11T05:20:32;99296.84;;;13.21;62.55
69855;BME280;57146;48.140;16.304;2023-05-11T05:23:00;99300.56;;;13.19;62.56
69855;BME280;57146;48.140;16.304;2023-05-11T05:25:27;99295.28;;;13.19;62.37
69855;BME280;57146;48.140;16.304;2023-05-11T05:27:55;99297.16;;;13.19;62.61
69855;BME280;57146;48.140;16.304;2023-05-11T05:30:22;99302.16;;;13.21;62.52
69855;BME280;57146;48.140;16.304;2023-05-11T05:32:49;99299.16;;;13.22;62.21
69855;BME280;57146;48.140;16.304;2023-05-11T05:35:16;99303.69;;;13.22;62.53
69855;BME280;57146;48.140;16.304;2023-05-11T05:37:43;99307.59;;;13.24;62.52
69855;BME280;57146;48.140;16.304;2023-05-11T05:40:10;99308.38;;;13.25;62.51
69855;BME280;57146;48.140;16.304;2023-05-11T05:42:43;99309.63;;;13.27;62.52
69855;BME280;57146;48.140;16.304;2023-05-11T05:45:14;99311.59;;;13.30;62.66
69855;BME280;57146;48.140;16.304;2023-05-11T05:47:41;99315.81;;;13.31;62.49
69855;BME280;57146;48.140;16.304;2023-05-11T05:50:08;99311.31;;;13.32;62.52
69855;BME280;57146;48.140;16.304;2023-05-11T05:52:36;99316.59;;;13.32;63.16
69855;BME280;57146;48.140;16.304;2023-05-11T05:55:03;99312.56;;;13.34;62.75
69855;BME280;57146;48.140;16.304;2023-05-11T05:57:30;99318.75;;;13.38;63.34
69855;BME280;57146;48.140;16.304;2023-05-11T05:59:58;99320.78;;;13.41;63.19
69855;BME280;57146;48.140;16.304;2023-05-11T06:02:26;99321.53;;;13.42;62.82
69855;BME280;57146;48.140;16.304;2023-05-11T06:04:53;99315.47;;;13.41;62.26
69855;BME280;57146;48.140;16.304;2023-05-11T06:07:20;99323.56;;;13.45;62.37
69855;BME280;57146;48.140;16.304;2023-05-11T06:09:48;99318.28;;;13.45;62.45
69855;BME280;57146;48.140;16.304;2023-05-11T06:12:15;99323.22;;;13.47;62.54
69855;BME280;57146;48.140;16.304;2023-05-11T06:14:45;99327.13;;;13.49;62.21
69855;BME280;57146;48.140;16.304;2023-05-11T06:17:12;99324.91;;;13.51;62.22
69855;BME280;57146;48.140;16.304;2023-05-11T06:19:39;99322.41;;;13.55;62.37
69855;BME280;57146;48.140;16.304;2023-05-11T06:22:07;99325.66;;;13.60;61.93
69855;BME280;57146;48.140;16.304;2023-05-11T06:24:35;99324.69;;;13.65;62.23
69855;BME280;57146;48.140;16.304;2023-05-11T06:27:03;99326.09;;;13.71;62.08
69855;BME280;57146;48.140;16.304;2023-05-11T06:29:31;99337.09;;;13.82;62.04
69855;BME280;57146;48.140;16.304;2023-05-11T06:32:00;99331.47;;;13.83;61.78
69855;BME280;57146;48.140;16.304;2023-05-11T06:34:31;99335.69;;;13.84;61.41
69855;BME280;57146;48.140;16.304;2023-05-11T06:36:59;99328.94;;;13.87;61.33
69855;BME280;57146;48.140;16.304;2023-05-11T06:39:26;99330.53;;;13.88;61.09
69855;BME280;57146;48.140;16.304;2023-05-11T06:41:53;99328.31;;;13.90;60.89
69855;BME280;57146;48.140;16.304;2023-05-11T06:44:23;99326.13;;;13.92;60.93
69855;BME280;57146;48.140;16.304;2023-05-11T06:46:52;99329.88;;;13.91;60.91
69855;BME280;57146;48.140;16.304;2023-05-11T06:49:19;99324.59;;;13.91;60.54
69855;BME280;57146;48.140;16.304;2023-05-11T06:51:47;99327.25;;;13.91;60.79
69855;BME280;57146;48.140;16.304;2023-05-11T06:54:14;99323.78;;;13.90;61.03
69855;BME280;57146;48.140;16.304;2023-05-11T06:56:41;99322.38;;;13.93;61.03
69855;BME280;57146;48.140;16.304;2023-05-11T06:59:08;99323.28;;;13.97;60.81
69855;BME280;57146;48.140;16.304;2023-05-11T07:01:35;99329.06;;;13.99;60.63
69855;BME280;57146;48.140;16.304;2023-05-11T07:04:02;99321.56;;;14.01;60.01
69855;BME280;57146;48.140;16.304;2023-05-11T07:06:29;99316.59;;;14.00;59.85
69855;BME280;57146;48.140;16.304;2023-05-11T07:08:56;99320.47;;;14.02;60.15
69855;BME280;57146;48.140;16.304;2023-05-11T07:11:23;99310.78;;;14.06;60.20
69855;BME280;57146;48.140;16.304;2023-05-11T07:13:50;99315.88;;;14.11;60.11
69855;BME280;57146;48.140;16.304;2023-05-11T07:16:17;99315.59;;;14.13;60.00
69855;BME280;57146;48.140;16.304;2023-05-11T07:18:44;99316.16;;;14.19;60.24
69855;BME280;57146;48.140;16.304;2023-05-11T07:21:11;99316.75;;;14.24;60.24
69855;BME280;57146;48.140;16.304;2023-05-11T07:23:38;99317.31;;;14.30;60.43
69855;BME280;57146;48.140;16.304;2023-05-11T07:26:04;99318.88;;;14.31;59.41
69855;BME280;57146;48.140;16.304;2023-05-11T07:28:31;99314.81;;;14.33;59.45
69855;BME280;57146;48.140;16.304;2023-05-11T07:30:58;99316.03;;;14.36;59.88
69855;BME280;57146;48.140;16.304;2023-05-11T07:33:25;99308.34;;;14.43;60.15
69855;BME280;57146;48.140;16.304;2023-05-11T07:35:52;99321.41;;;14.48;60.13
69855;BME280;57146;48.140;16.304;2023-05-11T07:38:18;99315.47;;;14.51;60.39
69855;BME280;57146;48.140;16.304;2023-05-11T07:40:45;99307.97;;;14.53;60.40
69855;BME280;57146;48.140;16.304;2023-05-11T07:43:12;99314.19;;;14.57;59.74
69855;BME280;57146;48.140;16.304;2023-05-11T07:45:39;99315.72;;;14.58;59.83
69855;BME280;57146;48.140;16.304;2023-05-11T07:48:06;99315.84;;;14.62;59.46
69855;BME280;57146;48.140;16.304;2023-05-11T07:50:32;99314.00;;;14.63;59.16
69855;BME280;57146;48.140;16.304;2023-05-11T07:52:59;99304.28;;;14.67;59.39
69855;BME280;57146;48.140;16.304;2023-05-11T07:55:26;99303.66;;;14.70;59.33
69855;BME280;57146;48.140;16.304;2023-05-11T07:57:53;99315.00;;;14.70;59.41
69855;BME280;57146;48.140;16.304;2023-05-11T08:00:20;99312.94;;;14.76;59.62
69855;BME280;57146;48.140;16.304;2023-05-11T08:02:47;99309.63;;;14.79;59.39
69855;BME280;57146;48.140;16.304;2023-05-11T08:05:15;99310.53;;;14.83;59.58
69855;BME280;57146;48.140;16.304;2023-05-11T08:07:42;99317.28;;;14.93;58.91
69855;BME280;57146;48.140;16.304;2023-05-11T08:10:09;99312.44;;;14.95;58.05
69855;BME280;57146;48.140;16.304;2023-05-11T08:12:37;99312.56;;;14.98;58.26
69855;BME280;57146;48.140;16.304;2023-05-11T08:15:04;99310.47;;;15.04;58.66
69855;BME280;57146;48.140;16.304;2023-05-11T08:17:31;99310.59;;;15.07;58.60
69855;BME280;57146;48.140;16.304;2023-05-11T08:20:22;99310.50;;;15.16;58.13
69855;BME280;57146;48.140;16.304;2023-05-11T08:22:49;99311.72;;;15.19;57.48
69855;BME280;57146;48.140;16.304;2023-05-11T08:25:16;99308.09;;;15.23;57.39
69855;BME280;57146;48.140;16.304;2023-05-11T08:27:43;99308.53;;;15.25;56.74
69855;BME280;57146;48.140;16.304;2023-05-11T08:30:10;99312.41;;;15.28;57.23
69855;BME280;57146;48.140;16.304;2023-05-11T08:32:37;99307.34;;;15.35;56.54
69855;BME280;57146;48.140;16.304;2023-05-11T08:35:23;99310.56;;;15.41;56.64
69855;BME280;57146;48.140;16.304;2023-05-11T08:37:50;99306.56;;;15.47;56.72
69855;BME280;57146;48.140;16.304;2023-05-11T08:40:19;99302.72;;;15.44;55.95
69855;BME280;57146;48.140;16.304;2023-05-11T08:42:48;99304.78;;;15.39;55.73
69855;BME280;57146;48.140;16.304;2023-05-11T08:45:19;99292.31;;;15.39;55.35
69855;BME280;57146;48.140;16.304;2023-05-11T08:47:47;99303.69;;;15.40;55.80
69855;BME280;57146;48.140;16.304;2023-05-11T08:50:15;99297.41;;;15.44;55.44
69855;BME280;57146;48.140;16.304;2023-05-11T08:52:43;99295.94;;;15.47;55.81
69855;BME280;57146;48.140;16.304;2023-05-11T08:55:10;99286.22;;;15.51;55.23
69855;BME280;57146;48.140;16.304;2023-05-11T08:57:37;99282.25;;;15.57;54.70
69855;BME280;57146;48.140;16.304;2023-05-11T09:00:06;99289.09;;;15.58;55.20
69855;BME280;57146;48.140;16.304;2023-05-11T09:02:33;99288.13;;;15.63;55.20
69855;BME280;57146;48.140;16.304;2023-05-11T09:05:01;99284.16;;;15.69;53.98
69855;BME280;57146;48.140;16.304;2023-05-11T09:07:29;99280.72;;;15.68;54.10
69855;BME280;57146;48.140;16.304;2023-05-11T09:09:56;99277.09;;;15.73;53.60
69855;BME280;57146;48.140;16.304;2023-05-11T09:12:23;99274.97;;;15.78;53.01
69855;BME280;57146;48.140;16.304;2023-05-11T09:14:51;99277.72;;;15.82;53.07
69855;BME280;57146;48.140;16.304;2023-05-11T09:17:18;99272.22;;;15.87;52.82
69855;BME280;57146;48.140;16.304;2023-05-11T09:20:02;99268.53;;;15.92;53.28
69855;BME280;57146;48.140;16.304;2023-05-11T09:22:33;99278.59;;;15.98;52.65
69855;BME280;57146;48.140;16.304;2023-05-11T09:25:02;99269.72;;;16.07;50.92
69855;BME280;57146;48.140;16.304;2023-05-11T09:27:29;99265.28;;;16.11;51.10
69855;BME280;57146;48.140;16.304;2023-05-11T09:30:09;99268.91;;;16.18;51.45
69855;BME280;57146;48.140;16.304;2023-05-11T09:33:05;99268.25;;;16.21;51.22
69855;BME280;57146;48.140;16.304;2023-05-11T09:35:34;99258.16;;;16.27;50.57
69855;BME280;57146;48.140;16.304;2023-05-11T09:38:06;99268.78;;;16.27;50.79
69855;BME280;57146;48.140;16.304;2023-05-11T09:40:38;99278.38;;;16.32;50.20
69855;BME280;57146;48.140;16.304;2023-05-11T09:43:20;99275.84;;;16.35;50.18
69855;BME280;57146;48.140;16.304;2023-05-11T09:45:48;99269.84;;;16.38;49.23
69855;BME280;57146;48.140;16.304;2023-05-11T09:50:42;99266.31;;;16.34;49.24
69855;BME280;57146;48.140;16.304;2023-05-11T09:53:09;99269.50;;;16.40;48.53
69855;BME280;57146;48.140;16.304;2023-05-11T09:55:37;99256.22;;;16.40;48.18
69855;BME280;57146;48.140;16.304;2023-05-11T09:58:04;99251.25;;;16.38;48.95
69855;BME280;57146;48.140;16.304;2023-05-11T10:00:31;99247.25;;;16.44;48.42
69855;BME280;57146;48.140;16.304;2023-05-11T10:03:03;99258.28;;;16.46;47.95
69855;BME280;57146;48.140;16.304;2023-05-11T10:05:32;99253.06;;;16.50;48.74
69855;BME280;57146;48.140;16.304;2023-05-11T10:08:04;99246.78;;;16.55;48.78
69855;BME280;57146;48.140;16.304;2023-05-11T10:10:32;99250.47;;;16.66;48.23
69855;BME280;57146;48.140;16.304;2023-05-11T10:13:01;99241.81;;;16.69;48.00
69855;BME280;57146;48.140;16.304;2023-05-11T10:15:28;99247.22;;;16.72;48.03
69855;BME280;57146;48.140;16.304;2023-05-11T10:17:58;99241.13;;;16.72;47.84
69855;BME280;57146;48.140;16.304;2023-05-11T10:20:25;99236.28;;;16.74;48.00
69855;BME280;57146;48.140;16.304;2023-05-11T10:22:54;99238.94;;;16.74;47.43
69855;BME280;57146;48.140;16.304;2023-05-11T10:25:22;99242.69;;;16.73;47.53
69855;BME280;57146;48.140;16.304;2023-05-11T10:27:50;99236.50;;;16.69;46.75
69855;BME280;57146;48.140;16.304;2023-05-11T10:30:17;99240.69;;;16.70;47.06
69855;BME280;57146;48.140;16.304;2023-05-11T10:32:45;99222.09;;;16.70;46.56
69855;BME280;57146;48.140;16.304;2023-05-11T10:35:12;99228.31;;;16.74;45.33
69855;BME280;57146;48.140;16.304;2023-05-11T10:37:40;99224.97;;;16.77;45.38
69855;BME280;57146;48.140;16.304;2023-05-11T10:40:07;99209.47;;;16.79;45.23
69855;BME280;57146;48.140;16.304;2023-05-11T10:48:59;99217.34;;;16.91;45.12
69855;BME280;57146;48.140;16.304;2023-05-11T10:51:50;99196.00;;;16.88;45.21
69855;BME280;57146;48.140;16.304;2023-05-11T11:03:18;99202.44;;;16.87;46.14
69855;BME280;57146;48.140;16.304;2023-05-11T11:05:45;99195.22;;;16.87;46.11
69855;BME280;57146;48.140;16.304;2023-05-11T11:08:12;99189.56;;;16.89;46.05
69855;BME280;57146;48.140;16.304;2023-05-11T11:10:41;99190.84;;;16.95;46.54
69855;BME280;57146;48.140;16.304;2023-05-11T11:13:11;99197.00;;;16.99;46.82
69855;BME280;57146;48.140;16.304;2023-05-11T11:18:25;99187.66;;;17.05;46.86
69855;BME280;57146;48.140;16.304;2023-05-11T11:20:55;99191.09;;;17.06;46.71
69855;BME280;57146;48.140;16.304;2023-05-11T11:23:42;99188.16;;;17.11;46.32
69855;BME280;57146;48.140;16.304;2023-05-11T11:26:11;99176.44;;;17.12;46.23
69855;BME280;57146;48.140;16.304;2023-05-11T11:29:07;99183.00;;;17.18;46.87
69855;BME280;57146;48.140;16.304;2023-05-11T11:31:34;99174.00;;;17.22;46.17
69855;BME280;57146;48.140;16.304;2023-05-11T11:39:27;99173.97;;;17.38;45.93
69855;BME280;57146;48.140;16.304;2023-05-11T11:42:04;99172.16;;;17.42;44.86
69855;BME280;57146;48.140;16.304;2023-05-11T11:44:36;99176.09;;;17.48;45.39
69855;BME280;57146;48.140;16.304;2023-05-11T11:47:22;99175.41;;;17.52;44.72
69855;BME280;57146;48.140;16.304;2023-05-11T11:49:53;99169.31;;;17.51;44.89
69855;BME280;57146;48.140;16.304;2023-05-11T11:54:55;99180.38;;;17.53;43.98
69855;BME280;57146;48.140;16.304;2023-05-11T12:00:06;99162.34;;;17.46;44.73
69855;BME280;57146;48.140;16.304;2023-05-11T12:02:43;99161.66;;;17.50;45.07
69855;BME280;57146;48.140;16.304;2023-05-11T12:05:18;99165.16;;;17.54;44.95
69855;BME280;57146;48.140;16.304;2023-05-11T12:07:49;99167.97;;;17.61;44.23
69855;BME280;57146;48.140;16.304;2023-05-11T12:10:19;99166.44;;;17.60;44.01
69855;BME280;57146;48.140;16.304;2023-05-11T12:12:48;99161.13;;;17.60;43.58
69855;BME280;57146;48.140;16.304;2023-05-11T12:15:28;99154.66;;;17.61;43.79
69855;BME280;57146;48.140;16.304;2023-05-11T12:17:56;99160.00;;;17.61;43.24
69855;BME280;57146;48.140;16.304;2023-05-11T12:20:23;99157.75;;;17.63;43.57
69855;BME280;57146;48.140;16.304;2023-05-11T12:22:50;99156.22;;;17.62;43.14
69855;BME280;57146;48.140;16.304;2023-05-11T12:25:18;99150.91;;;17.62;43.64
69855;BME280;57146;48.140;16.304;2023-05-11T12:27:54;99143.69;;;17.62;43.63
69855;BME280;57146;48.140;16.304;2023-05-11T12:30:29;99143.31;;;17.64;43.08
69855;BME280;57146;48.140;16.304;2023-05-11T12:32:58;99143.31;;;17.64;43.11
69855;BME280;57146;48.140;16.304;2023-05-11T12:35:30;99145.66;;;17.65;43.04
69855;BME280;57146;48.140;16.304;2023-05-11T12:38:00;99143.75;;;17.66;43.21
69855;BME280;57146;48.140;16.304;2023-05-11T12:40:27;99143.75;;;17.66;42.84
69855;BME280;57146;48.140;16.304;2023-05-11T12:42:57;99130.44;;;17.66;43.37
69855;BME280;57146;48.140;16.304;2023-05-11T12:45:25;99129.00;;;17.68;43.50
69855;BME280;57146;48.140;16.304;2023-05-11T12:47:54;99130.84;;;17.68;43.54
69855;BME280;57146;48.140;16.304;2023-05-11T12:50:21;99124.13;;;17.74;43.52
69855;BME280;57146;48.140;16.304;2023-05-11T12:52:48;99126.50;;;17.76;43.51
69855;BME280;57146;48.140;16.304;2023-05-11T12:55:27;99135.72;;;17.82;42.46
69855;BME280;57146;48.140;16.304;2023-05-11T12:58:07;99129.22;;;17.79;42.57
69855;BME280;57146;48.140;16.304;2023-05-11T13:00:34;99127.66;;;17.78;42.06
69855;BME280;57146;48.140;16.304;2023-05-11T13:03:01;99118.91;;;17.78;42.79
69855;BME280;57146;48.140;16.304;2023-05-11T13:05:28;99107.50;;;17.77;42.37
69855;BME280;57146;48.140;16.304;2023-05-11T13:08:01;99114.44;;;17.82;42.76
69855;BME280;57146;48.140;16.304;2023-05-11T13:10:28;99110.03;;;17.89;42.42
69855;BME280;57146;48.140;16.304;2023-05-11T13:12:56;99100.16;;;17.90;42.52
69855;BME280;57146;48.140;16.304;2023-05-11T13:15:24;99102.44;;;17.91;42.57
69855;BME280;57146;48.140;16.304;2023-05-11T13:17:59;99108.13;;;17.90;42.27
69855;BME280;57146;48.140;16.304;2023-05-11T13:20:31;99100.16;;;17.90;41.97
69855;BME280;57146;48.140;16.304;2023-05-11T13:23:10;99103.91;;;17.89;41.98
69855;BME280;57146;48.140;16.304;2023-05-11T13:28:15;99096.41;;;17.94;43.20
69855;BME280;57146;48.140;16.304;2023-05-11T13:30:42;99102.31;;;18.04;43.05
69855;BME280;57146;48.140;16.304;2023-05-11T13:33:10;99102.00;;;18.09;43.09
69855;BME280;57146;48.140;16.304;2023-05-11T13:35:38;99099.75;;;18.11;42.15
69855;BME280;57146;48.140;16.304;2023-05-11T13:38:05;99097.03;;;18.07;42.42
69855;BME280;57146;48.140;16.304;2023-05-11T13:40:32;99104.97;;;18.04;42.23
69855;BME280;57146;48.140;16.304;2023-05-11T13:43:00;99097.25;;;17.99;42.18